sensor_id;sensor_type;location;lat;lon;timestamp;P1;durP1;ratioP1;P2;durP2;ratioP2
3591;SDS011;1810;48.720;9.094;2023-04-15T00:00:55;510.40;;;485.98;;
3591;SDS011;1810;48.720;9.094;2023-04-15T00:03:24;497.13;;;473.27;;
3591;SDS011;1810;48.720;9.094;2023-04-15T00:05:54;499.77;;;475.85;;
3591;SDS011;1810;48.720;9.094;2023-04-15T00:08:24;503.08;;;478.63;;
3591;SDS011;1810;48.720;9.094;2023-04-15T00:10:52;496.80;;;472.92;;
3591;SDS011;1810;48.720;9.094;2023-04-15T00:13:20;501.38;;;477.27;;
3591;SDS011;1810;48.720;9.094;2023-04-15T00:15:49;507.17;;;482.52;;
3591;SDS011;1810;48.720;9.094;2023-04-15T00:18:17;490.80;;;466.98;;
3591;SDS011;1810;48.720;9.094;2023-04-15T00:20:46;479.05;;;456.30;;
3591;SDS011;1810;48.720;9.094;2023-04-15T00:23:14;480.70;;;457.80;;
3591;SDS011;1810;48.720;9.094;2023-04-15T00:25:44;482.85;;;460.08;;
3591;SDS011;1810;48.720;9.094;2023-04-15T00:28:12;498.00;;;473.92;;
3591;SDS011;1810;48.720;9.094;2023-04-15T00:30:41;510.05;;;484.95;;
3591;SDS011;1810;48.720;9.094;2023-04-15T00:33:09;485.75;;;462.38;;
3591;SDS011;1810;48.720;9.094;2023-04-15T00:35:38;506.67;;;481.55;;
3591;SDS011;1810;48.720;9.094;2023-04-15T00:38:07;510.50;;;485.77;;
3591;SDS011;1810;48.720;9.094;2023-04-15T00:40:35;488.08;;;464.65;;
3591;SDS011;1810;48.720;9.094;2023-04-15T00:43:05;509.58;;;485.33;;
3591;SDS011;1810;48.720;9.094;2023-04-15T00:45:34;484.67;;;461.27;;
3591;SDS011;1810;48.720;9.094;2023-04-15T00:48:02;493.50;;;469.88;;
3591;SDS011;1810;48.720;9.094;2023-04-15T00:50:32;479.52;;;456.58;;
3591;SDS011;1810;48.720;9.094;2023-04-15T00:53:00;493.73;;;470.08;;
3591;SDS011;1810;48.720;9.094;2023-04-15T00:55:28;501.00;;;477.02;;
3591;SDS011;1810;48.720;9.094;2023-04-15T00:57:57;480.63;;;457.67;;
3591;SDS011;1810;48.720;9.094;2023-04-15T01:00:27;490.02;;;466.30;;
3591;SDS011;1810;48.720;9.094;2023-04-15T01:02:55;492.92;;;469.30;;
3591;SDS011;1810;48.720;9.094;2023-04-15T01:05:24;457.88;;;436.25;;
3591;SDS011;1810;48.720;9.094;2023-04-15T01:07:52;443.02;;;422.50;;
3591;SDS011;1810;48.720;9.094;2023-04-15T01:10:22;453.23;;;432.08;;
3591;SDS011;1810;48.720;9.094;2023-04-15T01:12:50;490.00;;;466.55;;
3591;SDS011;1810;48.720;9.094;2023-04-15T01:15:19;481.05;;;458.25;;
3591;SDS011;1810;48.720;9.094;2023-04-15T01:17:49;445.55;;;424.85;;
3591;SDS011;1810;48.720;9.094;2023-04-15T01:20:17;374.67;;;358.30;;
3591;SDS011;1810;48.720;9.094;2023-04-15T01:22:45;436.25;;;416.23;;
3591;SDS011;1810;48.720;9.094;2023-04-15T01:25:16;366.35;;;350.70;;
3591;SDS011;1810;48.720;9.094;2023-04-15T01:27:46;423.73;;;404.58;;
3591;SDS011;1810;48.720;9.094;2023-04-15T01:30:15;440.40;;;419.98;;
3591;SDS011;1810;48.720;9.094;2023-04-15T01:32:43;379.92;;;363.20;;
3591;SDS011;1810;48.720;9.094;2023-04-15T01:35:12;378.60;;;362.02;;
3591;SDS011;1810;48.720;9.094;2023-04-15T01:37:40;344.95;;;330.35;;
3591;SDS011;1810;48.720;9.094;2023-04-15T01:40:10;385.38;;;368.50;;
3591;SDS011;1810;48.720;9.094;2023-04-15T01:42:40;407.50;;;389.42;;
3591;SDS011;1810;48.720;9.094;2023-04-15T01:45:10;319.67;;;306.33;;
3591;SDS011;1810;48.720;9.094;2023-04-15T01:47:39;392.45;;;375.30;;
3591;SDS011;1810;48.720;9.094;2023-04-15T01:50:08;399.67;;;381.80;;
3591;SDS011;1810;48.720;9.094;2023-04-15T01:52:36;327.13;;;313.23;;
3591;SDS011;1810;48.720;9.094;2023-04-15T01:55:05;324.77;;;311.23;;
3591;SDS011;1810;48.720;9.094;2023-04-15T01:57:34;338.77;;;324.40;;
3591;SDS011;1810;48.720;9.094;2023-04-15T02:00:03;308.45;;;295.67;;
3591;SDS011;1810;48.720;9.094;2023-04-15T02:02:34;315.40;;;302.38;;
3591;SDS011;1810;48.720;9.094;2023-04-15T02:05:03;299.55;;;286.73;;
3591;SDS011;1810;48.720;9.094;2023-04-15T02:07:32;347.10;;;332.38;;
3591;SDS011;1810;48.720;9.094;2023-04-15T02:10:00;393.40;;;375.95;;
3591;SDS011;1810;48.720;9.094;2023-04-15T02:12:29;352.88;;;336.98;;
3591;SDS011;1810;48.720;9.094;2023-04-15T02:14:57;368.25;;;352.05;;
3591;SDS011;1810;48.720;9.094;2023-04-15T02:17:26;385.23;;;367.90;;
3591;SDS011;1810;48.720;9.094;2023-04-15T02:19:56;370.85;;;354.75;;
3591;SDS011;1810;48.720;9.094;2023-04-15T02:22:24;308.40;;;295.70;;
3591;SDS011;1810;48.720;9.094;2023-04-15T02:24:53;292.90;;;280.85;;
3591;SDS011;1810;48.720;9.094;2023-04-15T02:27:21;341.70;;;327.17;;
3591;SDS011;1810;48.720;9.094;2023-04-15T02:29:49;338.20;;;323.95;;
3591;SDS011;1810;48.720;9.094;2023-04-15T02:32:18;270.83;;;259.98;;
3591;SDS011;1810;48.720;9.094;2023-04-15T02:34:48;329.52;;;315.67;;
3591;SDS011;1810;48.720;9.094;2023-04-15T02:37:18;341.25;;;326.70;;
3591;SDS011;1810;48.720;9.094;2023-04-15T02:39:47;289.30;;;277.48;;
3591;SDS011;1810;48.720;9.094;2023-04-15T02:42:15;371.58;;;355.48;;
3591;SDS011;1810;48.720;9.094;2023-04-15T02:44:44;299.25;;;286.95;;
3591;SDS011;1810;48.720;9.094;2023-04-15T02:47:12;328.17;;;314.30;;
3591;SDS011;1810;48.720;9.094;2023-04-15T02:49:41;304.92;;;292.33;;
3591;SDS011;1810;48.720;9.094;2023-04-15T02:52:09;307.80;;;295.20;;
3591;SDS011;1810;48.720;9.094;2023-04-15T02:54:39;304.10;;;291.67;;
3591;SDS011;1810;48.720;9.094;2023-04-15T02:57:07;343.02;;;328.65;;
3591;SDS011;1810;48.720;9.094;2023-04-15T02:59:36;288.77;;;276.98;;
3591;SDS011;1810;48.720;9.094;2023-04-15T03:02:05;294.98;;;282.75;;
3591;SDS011;1810;48.720;9.094;2023-04-15T03:04:34;300.20;;;287.60;;
3591;SDS011;1810;48.720;9.094;2023-04-15T03:07:02;288.05;;;276.48;;
3591;SDS011;1810;48.720;9.094;2023-04-15T03:09:30;305.20;;;292.65;;
3591;SDS011;1810;48.720;9.094;2023-04-15T03:12:00;273.25;;;262.15;;
3591;SDS011;1810;48.720;9.094;2023-04-15T03:14:29;313.38;;;300.30;;
3591;SDS011;1810;48.720;9.094;2023-04-15T03:16:57;282.88;;;271.38;;
3591;SDS011;1810;48.720;9.094;2023-04-15T03:19:26;273.38;;;262.45;;
3591;SDS011;1810;48.720;9.094;2023-04-15T03:21:54;284.52;;;273.00;;
3591;SDS011;1810;48.720;9.094;2023-04-15T03:24:23;276.17;;;264.85;;
3591;SDS011;1810;48.720;9.094;2023-04-15T03:26:52;263.10;;;252.48;;
3591;SDS011;1810;48.720;9.094;2023-04-15T03:29:22;275.77;;;264.55;;
3591;SDS011;1810;48.720;9.094;2023-04-15T03:31:51;310.17;;;297.40;;
3591;SDS011;1810;48.720;9.094;2023-04-15T03:34:19;282.83;;;271.25;;
3591;SDS011;1810;48.720;9.094;2023-04-15T03:36:48;274.92;;;263.85;;
3591;SDS011;1810;48.720;9.094;2023-04-15T03:39:16;286.77;;;274.88;;
3591;SDS011;1810;48.720;9.094;2023-04-15T03:41:44;306.00;;;293.33;;
3591;SDS011;1810;48.720;9.094;2023-04-15T03:44:13;283.90;;;272.33;;
3591;SDS011;1810;48.720;9.094;2023-04-15T03:46:43;302.70;;;290.35;;
3591;SDS011;1810;48.720;9.094;2023-04-15T03:49:12;303.23;;;290.67;;
3591;SDS011;1810;48.720;9.094;2023-04-15T03:51:41;296.80;;;284.73;;
3591;SDS011;1810;48.720;9.094;2023-04-15T03:54:09;303.48;;;290.90;;
3591;SDS011;1810;48.720;9.094;2023-04-15T03:56:40;289.50;;;277.70;;
3591;SDS011;1810;48.720;9.094;2023-04-15T03:59:08;278.05;;;266.88;;
3591;SDS011;1810;48.720;9.094;2023-04-15T04:01:37;314.10;;;300.92;;
3591;SDS011;1810;48.720;9.094;2023-04-15T04:04:06;286.55;;;274.90;;
3591;SDS011;1810;48.720;9.094;2023-04-15T04:06:35;278.13;;;267.00;;
3591;SDS011;1810;48.720;9.094;2023-04-15T04:09:03;258.70;;;248.43;;
3591;SDS011;1810;48.720;9.094;2023-04-15T04:11:32;269.60;;;258.73;;
3591;SDS011;1810;48.720;9.094;2023-04-15T04:14:00;291.85;;;279.92;;
3591;SDS011;1810;48.720;9.094;2023-04-15T04:16:29;274.25;;;263.13;;
3591;SDS011;1810;48.720;9.094;2023-04-15T04:18:57;264.95;;;254.20;;
3591;SDS011;1810;48.720;9.094;2023-04-15T04:21:27;302.80;;;290.23;;
3591;SDS011;1810;48.720;9.094;2023-04-15T04:23:56;255.82;;;245.52;;
3591;SDS011;1810;48.720;9.094;2023-04-15T04:26:24;289.63;;;277.80;;
3591;SDS011;1810;48.720;9.094;2023-04-15T04:28:53;270.85;;;259.98;;
3591;SDS011;1810;48.720;9.094;2023-04-15T04:31:21;276.33;;;264.80;;
3591;SDS011;1810;48.720;9.094;2023-04-15T04:33:49;276.65;;;265.45;;
3591;SDS011;1810;48.720;9.094;2023-04-15T04:36:18;265.02;;;254.57;;
3591;SDS011;1810;48.720;9.094;2023-04-15T04:38:47;300.55;;;288.10;;
3591;SDS011;1810;48.720;9.094;2023-04-15T04:41:16;278.52;;;267.33;;
3591;SDS011;1810;48.720;9.094;2023-04-15T04:43:44;266.30;;;255.57;;
3591;SDS011;1810;48.720;9.094;2023-04-15T04:46:13;276.73;;;265.55;;
3591;SDS011;1810;48.720;9.094;2023-04-15T04:48:41;283.27;;;271.75;;
3591;SDS011;1810;48.720;9.094;2023-04-15T04:51:12;280.23;;;268.95;;
3591;SDS011;1810;48.720;9.094;2023-04-15T04:53:41;288.98;;;277.15;;
3591;SDS011;1810;48.720;9.094;2023-04-15T04:56:11;266.35;;;255.48;;
3591;SDS011;1810;48.720;9.094;2023-04-15T04:58:39;277.27;;;266.20;;
3591;SDS011;1810;48.720;9.094;2023-04-15T05:01:07;300.55;;;288.15;;
3591;SDS011;1810;48.720;9.094;2023-04-15T05:03:36;272.38;;;261.50;;
3591;SDS011;1810;48.720;9.094;2023-04-15T05:06:04;281.73;;;270.25;;
3591;SDS011;1810;48.720;9.094;2023-04-15T05:08:34;298.00;;;285.90;;
3591;SDS011;1810;48.720;9.094;2023-04-15T05:11:05;262.30;;;251.65;;
3591;SDS011;1810;48.720;9.094;2023-04-15T05:13:35;309.75;;;296.73;;
3591;SDS011;1810;48.720;9.094;2023-04-15T05:16:04;258.63;;;248.15;;
3591;SDS011;1810;48.720;9.094;2023-04-15T05:18:33;215.18;;;206.63;;
3591;SDS011;1810;48.720;9.094;2023-04-15T05:21:03;194.27;;;186.57;;
3591;SDS011;1810;48.720;9.094;2023-04-15T05:23:31;193.32;;;185.73;;
3591;SDS011;1810;48.720;9.094;2023-04-15T05:26:00;209.52;;;201.20;;
3591;SDS011;1810;48.720;9.094;2023-04-15T05:28:29;336.88;;;322.50;;
3591;SDS011;1810;48.720;9.094;2023-04-15T05:30:58;356.77;;;341.40;;
3591;SDS011;1810;48.720;9.094;2023-04-15T05:33:27;358.38;;;342.80;;
3591;SDS011;1810;48.720;9.094;2023-04-15T05:35:55;322.17;;;308.55;;
3591;SDS011;1810;48.720;9.094;2023-04-15T05:38:23;228.57;;;219.48;;
3591;SDS011;1810;48.720;9.094;2023-04-15T05:40:52;208.40;;;200.20;;
3591;SDS011;1810;48.720;9.094;2023-04-15T05:43:21;261.92;;;251.32;;
3591;SDS011;1810;48.720;9.094;2023-04-15T05:45:49;205.95;;;197.95;;
3591;SDS011;1810;48.720;9.094;2023-04-15T05:48:19;220.07;;;211.45;;
3591;SDS011;1810;48.720;9.094;2023-04-15T05:50:47;187.25;;;180.05;;
3591;SDS011;1810;48.720;9.094;2023-04-15T05:53:16;223.18;;;214.38;;
3591;SDS011;1810;48.720;9.094;2023-04-15T05:55:44;178.55;;;171.68;;
3591;SDS011;1810;48.720;9.094;2023-04-15T05:58:12;149.30;;;143.48;;
3591;SDS011;1810;48.720;9.094;2023-04-15T06:00:41;179.38;;;172.48;;
3591;SDS011;1810;48.720;9.094;2023-04-15T06:03:09;184.82;;;177.65;;
3591;SDS011;1810;48.720;9.094;2023-04-15T06:05:40;179.38;;;172.38;;
3591;SDS011;1810;48.720;9.094;2023-04-15T06:08:10;276.90;;;265.25;;
3591;SDS011;1810;48.720;9.094;2023-04-15T06:10:38;306.35;;;293.15;;
3591;SDS011;1810;48.720;9.094;2023-04-15T06:13:06;216.85;;;208.30;;
3591;SDS011;1810;48.720;9.094;2023-04-15T06:15:35;260.90;;;249.07;;
3591;SDS011;1810;48.720;9.094;2023-04-15T06:18:04;210.02;;;201.82;;
3591;SDS011;1810;48.720;9.094;2023-04-15T06:20:33;181.75;;;174.25;;
3591;SDS011;1810;48.720;9.094;2023-04-15T06:23:03;202.52;;;194.57;;
3591;SDS011;1810;48.720;9.094;2023-04-15T06:25:32;248.02;;;237.95;;
3591;SDS011;1810;48.720;9.094;2023-04-15T06:28:00;258.30;;;247.85;;
3591;SDS011;1810;48.720;9.094;2023-04-15T06:30:29;220.90;;;212.32;;
3591;SDS011;1810;48.720;9.094;2023-04-15T06:32:57;183.20;;;176.13;;
3591;SDS011;1810;48.720;9.094;2023-04-15T06:35:25;200.77;;;193.02;;
3591;SDS011;1810;48.720;9.094;2023-04-15T06:37:54;282.65;;;270.90;;
3591;SDS011;1810;48.720;9.094;2023-04-15T06:40:24;241.48;;;231.80;;
3591;SDS011;1810;48.720;9.094;2023-04-15T06:42:52;256.90;;;246.65;;
3591;SDS011;1810;48.720;9.094;2023-04-15T06:45:21;216.63;;;207.90;;
3591;SDS011;1810;48.720;9.094;2023-04-15T06:47:49;192.55;;;185.02;;
3591;SDS011;1810;48.720;9.094;2023-04-15T06:50:18;189.68;;;182.18;;
3591;SDS011;1810;48.720;9.094;2023-04-15T06:52:46;179.73;;;172.73;;
3591;SDS011;1810;48.720;9.094;2023-04-15T06:55:15;204.07;;;196.07;;
3591;SDS011;1810;48.720;9.094;2023-04-15T06:57:45;228.02;;;218.98;;
3591;SDS011;1810;48.720;9.094;2023-04-15T07:00:13;174.05;;;167.13;;
3591;SDS011;1810;48.720;9.094;2023-04-15T07:02:43;270.25;;;258.02;;
3591;SDS011;1810;48.720;9.094;2023-04-15T07:05:11;225.18;;;216.30;;
3591;SDS011;1810;48.720;9.094;2023-04-15T07:07:40;165.82;;;159.32;;
3591;SDS011;1810;48.720;9.094;2023-04-15T07:10:09;168.88;;;162.32;;
3591;SDS011;1810;48.720;9.094;2023-04-15T07:12:40;154.05;;;148.00;;
3591;SDS011;1810;48.720;9.094;2023-04-15T07:15:10;255.75;;;244.82;;
3591;SDS011;1810;48.720;9.094;2023-04-15T07:17:39;183.05;;;175.95;;
3591;SDS011;1810;48.720;9.094;2023-04-15T07:20:11;163.93;;;157.55;;
3591;SDS011;1810;48.720;9.094;2023-04-15T07:22:39;191.68;;;183.73;;
3591;SDS011;1810;48.720;9.094;2023-04-15T07:25:08;168.30;;;161.65;;
3591;SDS011;1810;48.720;9.094;2023-04-15T07:27:36;170.55;;;163.90;;
3591;SDS011;1810;48.720;9.094;2023-04-15T07:30:05;213.18;;;204.63;;
3591;SDS011;1810;48.720;9.094;2023-04-15T07:32:37;307.95;;;294.52;;
3591;SDS011;1810;48.720;9.094;2023-04-15T07:35:06;363.67;;;347.55;;
3591;SDS011;1810;48.720;9.094;2023-04-15T07:37:35;286.52;;;274.40;;
3591;SDS011;1810;48.720;9.094;2023-04-15T07:40:03;297.20;;;284.95;;
3591;SDS011;1810;48.720;9.094;2023-04-15T07:42:34;376.70;;;359.48;;
3591;SDS011;1810;48.720;9.094;2023-04-15T07:45:06;327.05;;;313.10;;
3591;SDS011;1810;48.720;9.094;2023-04-15T07:47:36;320.55;;;306.83;;
3591;SDS011;1810;48.720;9.094;2023-04-15T07:50:06;288.20;;;276.23;;
3591;SDS011;1810;48.720;9.094;2023-04-15T07:52:35;299.90;;;287.30;;
3591;SDS011;1810;48.720;9.094;2023-04-15T07:55:05;204.50;;;196.38;;
3591;SDS011;1810;48.720;9.094;2023-04-15T07:57:34;199.25;;;191.43;;
3591;SDS011;1810;48.720;9.094;2023-04-15T08:00:03;182.77;;;175.68;;
3591;SDS011;1810;48.720;9.094;2023-04-15T08:02:33;182.27;;;175.13;;
3591;SDS011;1810;48.720;9.094;2023-04-15T08:05:06;177.20;;;169.88;;
3591;SDS011;1810;48.720;9.094;2023-04-15T08:07:36;157.70;;;151.57;;
3591;SDS011;1810;48.720;9.094;2023-04-15T08:10:04;150.52;;;144.68;;
3591;SDS011;1810;48.720;9.094;2023-04-15T08:12:34;193.52;;;184.75;;
3591;SDS011;1810;48.720;9.094;2023-04-15T08:15:02;151.88;;;145.65;;
3591;SDS011;1810;48.720;9.094;2023-04-15T08:17:31;141.13;;;135.65;;
3591;SDS011;1810;48.720;9.094;2023-04-15T08:20:00;161.70;;;155.45;;
3591;SDS011;1810;48.720;9.094;2023-04-15T08:22:32;234.20;;;224.65;;
3591;SDS011;1810;48.720;9.094;2023-04-15T08:25:00;351.73;;;334.80;;
3591;SDS011;1810;48.720;9.094;2023-04-15T08:27:29;233.68;;;224.02;;
3591;SDS011;1810;48.720;9.094;2023-04-15T08:29:57;195.52;;;187.85;;
3591;SDS011;1810;48.720;9.094;2023-04-15T08:32:30;217.75;;;208.50;;
3591;SDS011;1810;48.720;9.094;2023-04-15T08:34:58;294.13;;;279.85;;
3591;SDS011;1810;48.720;9.094;2023-04-15T08:37:26;269.02;;;257.63;;
3591;SDS011;1810;48.720;9.094;2023-04-15T08:39:56;343.05;;;327.50;;
3591;SDS011;1810;48.720;9.094;2023-04-15T08:42:26;203.07;;;194.82;;
3591;SDS011;1810;48.720;9.094;2023-04-15T08:44:57;145.02;;;139.38;;
3591;SDS011;1810;48.720;9.094;2023-04-15T08:47:28;171.43;;;164.77;;
3591;SDS011;1810;48.720;9.094;2023-04-15T08:49:57;139.32;;;133.93;;
3591;SDS011;1810;48.720;9.094;2023-04-15T08:52:26;222.85;;;213.48;;
3591;SDS011;1810;48.720;9.094;2023-04-15T08:54:58;255.95;;;245.00;;
3591;SDS011;1810;48.720;9.094;2023-04-15T08:57:27;156.98;;;150.85;;
3591;SDS011;1810;48.720;9.094;2023-04-15T08:59:56;147.73;;;141.93;;
3591;SDS011;1810;48.720;9.094;2023-04-15T09:02:24;250.88;;;240.77;;
3591;SDS011;1810;48.720;9.094;2023-04-15T09:04:53;296.70;;;283.88;;
3591;SDS011;1810;48.720;9.094;2023-04-15T09:07:22;156.63;;;150.45;;
3591;SDS011;1810;48.720;9.094;2023-04-15T09:09:51;231.77;;;222.38;;
3591;SDS011;1810;48.720;9.094;2023-04-15T09:12:20;185.68;;;178.35;;
3591;SDS011;1810;48.720;9.094;2023-04-15T09:14:49;144.90;;;139.02;;
3591;SDS011;1810;48.720;9.094;2023-04-15T09:17:18;177.63;;;170.70;;
3591;SDS011;1810;48.720;9.094;2023-04-15T09:19:47;288.48;;;275.45;;
3591;SDS011;1810;48.720;9.094;2023-04-15T09:22:15;193.40;;;184.63;;
3591;SDS011;1810;48.720;9.094;2023-04-15T09:24:44;329.55;;;314.40;;
3591;SDS011;1810;48.720;9.094;2023-04-15T09:27:12;159.32;;;153.07;;
3591;SDS011;1810;48.720;9.094;2023-04-15T09:29:44;166.10;;;159.60;;
3591;SDS011;1810;48.720;9.094;2023-04-15T09:32:16;206.98;;;198.77;;
3591;SDS011;1810;48.720;9.094;2023-04-15T09:34:46;232.10;;;222.63;;
3591;SDS011;1810;48.720;9.094;2023-04-15T09:37:14;171.55;;;164.82;;
3591;SDS011;1810;48.720;9.094;2023-04-15T09:39:57;187.73;;;180.32;;
3591;SDS011;1810;48.720;9.094;2023-04-15T09:42:25;174.93;;;167.95;;
3591;SDS011;1810;48.720;9.094;2023-04-15T09:44:55;172.10;;;165.38;;
3591;SDS011;1810;48.720;9.094;2023-04-15T09:47:35;237.32;;;227.27;;
3591;SDS011;1810;48.720;9.094;2023-04-15T09:50:03;251.13;;;240.75;;
3591;SDS011;1810;48.720;9.094;2023-04-15T09:52:33;236.48;;;227.00;;
3591;SDS011;1810;48.720;9.094;2023-04-15T09:55:09;175.77;;;168.98;;
3591;SDS011;1810;48.720;9.094;2023-04-15T09:57:38;157.43;;;151.05;;
3591;SDS011;1810;48.720;9.094;2023-04-15T10:00:09;203.38;;;195.05;;
3591;SDS011;1810;48.720;9.094;2023-04-15T10:02:38;223.02;;;213.73;;
3591;SDS011;1810;48.720;9.094;2023-04-15T10:05:09;310.63;;;295.60;;
3591;SDS011;1810;48.720;9.094;2023-04-15T10:07:38;187.48;;;180.10;;
3591;SDS011;1810;48.720;9.094;2023-04-15T10:10:08;201.05;;;193.23;;
3591;SDS011;1810;48.720;9.094;2023-04-15T10:12:38;206.82;;;198.57;;
3591;SDS011;1810;48.720;9.094;2023-04-15T10:15:15;191.18;;;183.65;;
3591;SDS011;1810;48.720;9.094;2023-04-15T10:17:44;175.02;;;167.98;;
3591;SDS011;1810;48.720;9.094;2023-04-15T10:20:12;378.38;;;357.85;;
3591;SDS011;1810;48.720;9.094;2023-04-15T10:22:42;163.52;;;157.07;;
3591;SDS011;1810;48.720;9.094;2023-04-15T10:25:12;259.77;;;249.15;;
3591;SDS011;1810;48.720;9.094;2023-04-15T10:27:42;158.95;;;152.75;;
3591;SDS011;1810;48.720;9.094;2023-04-15T10:30:15;189.77;;;182.20;;
3591;SDS011;1810;48.720;9.094;2023-04-15T10:32:44;170.15;;;163.50;;
3591;SDS011;1810;48.720;9.094;2023-04-15T10:35:13;179.95;;;172.88;;
3591;SDS011;1810;48.720;9.094;2023-04-15T10:37:43;198.02;;;189.90;;
3591;SDS011;1810;48.720;9.094;2023-04-15T10:40:27;171.10;;;164.35;;
3591;SDS011;1810;48.720;9.094;2023-04-15T10:42:57;161.57;;;155.15;;
3591;SDS011;1810;48.720;9.094;2023-04-15T10:45:32;245.63;;;235.20;;
3591;SDS011;1810;48.720;9.094;2023-04-15T10:48:02;158.77;;;152.38;;
3591;SDS011;1810;48.720;9.094;2023-04-15T10:50:31;199.38;;;191.45;;
3591;SDS011;1810;48.720;9.094;2023-04-15T10:53:01;186.13;;;178.40;;
3591;SDS011;1810;48.720;9.094;2023-04-15T10:55:30;184.55;;;177.35;;
3591;SDS011;1810;48.720;9.094;2023-04-15T10:58:00;246.77;;;235.90;;
3591;SDS011;1810;48.720;9.094;2023-04-15T11:00:31;178.68;;;171.65;;
3591;SDS011;1810;48.720;9.094;2023-04-15T11:03:04;360.00;;;343.13;;
3591;SDS011;1810;48.720;9.094;2023-04-15T11:05:49;270.25;;;258.50;;
3591;SDS011;1810;48.720;9.094;2023-04-15T11:08:18;215.15;;;206.63;;
3591;SDS011;1810;48.720;9.094;2023-04-15T11:10:51;274.95;;;263.48;;
3591;SDS011;1810;48.720;9.094;2023-04-15T11:13:26;178.27;;;171.25;;
3591;SDS011;1810;48.720;9.094;2023-04-15T11:15:58;327.73;;;312.23;;
3591;SDS011;1810;48.720;9.094;2023-04-15T11:18:32;250.32;;;238.93;;
3591;SDS011;1810;48.720;9.094;2023-04-15T11:21:02;198.48;;;190.55;;
3591;SDS011;1810;48.720;9.094;2023-04-15T11:23:35;239.27;;;229.52;;
3591;SDS011;1810;48.720;9.094;2023-04-15T11:26:05;229.32;;;220.15;;
3591;SDS011;1810;48.720;9.094;2023-04-15T11:28:38;185.48;;;178.10;;
3591;SDS011;1810;48.720;9.094;2023-04-15T11:31:09;243.02;;;232.98;;
3591;SDS011;1810;48.720;9.094;2023-04-15T11:33:44;217.00;;;208.40;;
3591;SDS011;1810;48.720;9.094;2023-04-15T11:36:14;198.10;;;190.13;;
3591;SDS011;1810;48.720;9.094;2023-04-15T11:38:43;181.82;;;174.70;;
3591;SDS011;1810;48.720;9.094;2023-04-15T11:41:13;200.60;;;192.60;;
3591;SDS011;1810;48.720;9.094;2023-04-15T11:43:41;323.83;;;306.58;;
3591;SDS011;1810;48.720;9.094;2023-04-15T11:46:11;175.73;;;168.75;;
3591;SDS011;1810;48.720;9.094;2023-04-15T11:48:41;238.43;;;228.77;;
3591;SDS011;1810;48.720;9.094;2023-04-15T11:51:10;185.30;;;177.98;;
3591;SDS011;1810;48.720;9.094;2023-04-15T11:53:41;199.13;;;191.23;;
3591;SDS011;1810;48.720;9.094;2023-04-15T11:56:15;191.52;;;183.43;;
3591;SDS011;1810;48.720;9.094;2023-04-15T11:58:45;139.25;;;133.73;;
3591;SDS011;1810;48.720;9.094;2023-04-15T12:01:17;200.88;;;193.02;;
3591;SDS011;1810;48.720;9.094;2023-04-15T12:03:46;342.08;;;326.33;;
3591;SDS011;1810;48.720;9.094;2023-04-15T12:06:21;241.25;;;231.35;;
3591;SDS011;1810;48.720;9.094;2023-04-15T12:08:51;233.18;;;223.07;;
3591;SDS011;1810;48.720;9.094;2023-04-15T12:11:27;300.38;;;287.77;;
3591;SDS011;1810;48.720;9.094;2023-04-15T12:14:04;341.30;;;324.45;;
3591;SDS011;1810;48.720;9.094;2023-04-15T12:16:35;200.43;;;192.55;;
3591;SDS011;1810;48.720;9.094;2023-04-15T12:19:16;254.45;;;243.77;;
3591;SDS011;1810;48.720;9.094;2023-04-15T12:21:46;169.43;;;162.82;;
3591;SDS011;1810;48.720;9.094;2023-04-15T12:24:14;198.63;;;190.55;;
3591;SDS011;1810;48.720;9.094;2023-04-15T12:26:48;254.77;;;243.48;;
3591;SDS011;1810;48.720;9.094;2023-04-15T12:29:18;180.07;;;172.80;;
3591;SDS011;1810;48.720;9.094;2023-04-15T12:31:49;185.18;;;177.77;;
3591;SDS011;1810;48.720;9.094;2023-04-15T12:34:24;258.98;;;248.35;;
3591;SDS011;1810;48.720;9.094;2023-04-15T12:36:54;255.77;;;245.18;;
3591;SDS011;1810;48.720;9.094;2023-04-15T12:39:24;235.25;;;225.60;;
3591;SDS011;1810;48.720;9.094;2023-04-15T12:41:56;318.63;;;304.48;;
3591;SDS011;1810;48.720;9.094;2023-04-15T12:44:24;445.67;;;423.60;;
3591;SDS011;1810;48.720;9.094;2023-04-15T12:46:54;209.73;;;201.32;;
3591;SDS011;1810;48.720;9.094;2023-04-15T12:49:23;177.73;;;170.77;;
3591;SDS011;1810;48.720;9.094;2023-04-15T12:51:52;240.50;;;230.45;;
3591;SDS011;1810;48.720;9.094;2023-04-15T12:54:24;249.45;;;239.50;;
3591;SDS011;1810;48.720;9.094;2023-04-15T12:56:54;254.10;;;243.85;;
3591;SDS011;1810;48.720;9.094;2023-04-15T12:59:23;256.92;;;246.48;;
3591;SDS011;1810;48.720;9.094;2023-04-15T13:01:52;262.23;;;251.43;;
3591;SDS011;1810;48.720;9.094;2023-04-15T13:04:22;261.90;;;250.77;;
3591;SDS011;1810;48.720;9.094;2023-04-15T13:06:51;219.32;;;210.48;;
3591;SDS011;1810;48.720;9.094;2023-04-15T13:09:19;261.52;;;250.90;;
3591;SDS011;1810;48.720;9.094;2023-04-15T13:11:48;300.52;;;287.45;;
3591;SDS011;1810;48.720;9.094;2023-04-15T13:14:18;347.50;;;332.30;;
3591;SDS011;1810;48.720;9.094;2023-04-15T13:16:46;175.82;;;168.93;;
3591;SDS011;1810;48.720;9.094;2023-04-15T13:19:14;195.18;;;187.38;;
3591;SDS011;1810;48.720;9.094;2023-04-15T13:21:44;206.88;;;198.68;;
3591;SDS011;1810;48.720;9.094;2023-04-15T13:27:00;291.45;;;278.40;;
3591;SDS011;1810;48.720;9.094;2023-04-15T13:29:29;345.48;;;329.40;;
3591;SDS011;1810;48.720;9.094;2023-04-15T13:31:58;287.58;;;275.45;;
3591;SDS011;1810;48.720;9.094;2023-04-15T13:34:26;350.65;;;334.65;;
3591;SDS011;1810;48.720;9.094;2023-04-15T13:36:56;326.52;;;311.77;;
3591;SDS011;1810;48.720;9.094;2023-04-15T13:39:28;298.30;;;285.48;;
3591;SDS011;1810;48.720;9.094;2023-04-15T13:41:57;236.85;;;227.07;;
3591;SDS011;1810;48.720;9.094;2023-04-15T13:44:35;383.35;;;365.85;;
3591;SDS011;1810;48.720;9.094;2023-04-15T13:47:03;339.33;;;322.80;;
3591;SDS011;1810;48.720;9.094;2023-04-15T13:49:32;261.83;;;250.95;;
3591;SDS011;1810;48.720;9.094;2023-04-15T13:52:02;209.82;;;200.95;;
3591;SDS011;1810;48.720;9.094;2023-04-15T13:54:30;148.82;;;142.57;;
3591;SDS011;1810;48.720;9.094;2023-04-15T13:57:03;175.18;;;168.15;;
3591;SDS011;1810;48.720;9.094;2023-04-15T13:59:32;165.40;;;158.70;;
3591;SDS011;1810;48.720;9.094;2023-04-15T14:02:01;243.75;;;232.70;;
3591;SDS011;1810;48.720;9.094;2023-04-15T14:04:30;166.30;;;159.27;;
3591;SDS011;1810;48.720;9.094;2023-04-15T14:06:59;147.52;;;141.50;;
3591;SDS011;1810;48.720;9.094;2023-04-15T14:09:30;162.68;;;156.18;;
3591;SDS011;1810;48.720;9.094;2023-04-15T14:12:00;145.65;;;139.50;;
3591;SDS011;1810;48.720;9.094;2023-04-15T14:14:29;203.05;;;194.60;;
3591;SDS011;1810;48.720;9.094;2023-04-15T14:16:57;152.55;;;146.15;;
3591;SDS011;1810;48.720;9.094;2023-04-15T14:19:26;191.68;;;183.23;;
3591;SDS011;1810;48.720;9.094;2023-04-15T14:21:56;164.30;;;157.70;;
3591;SDS011;1810;48.720;9.094;2023-04-15T14:24:26;185.63;;;177.57;;
3591;SDS011;1810;48.720;9.094;2023-04-15T14:26:54;134.88;;;129.57;;
3591;SDS011;1810;48.720;9.094;2023-04-15T14:29:23;151.50;;;145.40;;
3591;SDS011;1810;48.720;9.094;2023-04-15T14:31:52;143.15;;;136.90;;
3591;SDS011;1810;48.720;9.094;2023-04-15T14:34:37;134.02;;;128.65;;
3591;SDS011;1810;48.720;9.094;2023-04-15T14:37:06;214.02;;;204.43;;